sensor_id;sensor_type;location;lat;lon;timestamp;pressure;altitude;pressure_sealevel;temperature
68745;BMP180;66104;45.456;11.064;2023-02-27T00:01:26;100247.00;;;6.70
68745;BMP180;66104;45.456;11.064;2023-02-27T00:04:04;100253.20;;;6.70
68745;BMP180;66104;45.456;11.064;2023-02-27T00:06:41;100263.20;;;6.70
68745;BMP180;66104;45.456;11.064;2023-02-27T00:09:16;100277.60;;;6.60
68745;BMP180;66104;45.456;11.064;2023-02-27T00:11:53;100280.40;;;6.60
68745;BMP180;66104;45.456;11.064;2023-02-27T00:14:30;100276.00;;;6.60
68745;BMP180;66104;45.456;11.064;2023-02-27T00:17:12;100283.80;;;6.50
68745;BMP180;66104;45.456;11.064;2023-02-27T00:19:49;100291.20;;;6.50
68745;BMP180;66104;45.456;11.064;2023-02-27T00:22:26;100299.20;;;6.50
68745;BMP180;66104;45.456;11.064;2023-02-27T00:25:04;100303.00;;;6.50
68745;BMP180;66104;45.456;11.064;2023-02-27T00:27:42;100310.00;;;6.40
68745;BMP180;66104;45.456;11.064;2023-02-27T00:30:20;100309.80;;;6.40
68745;BMP180;66104;45.456;11.064;2023-02-27T00:32:59;100310.80;;;6.40
68745;BMP180;66104;45.456;11.064;2023-02-27T00:35:35;100318.40;;;6.40
68745;BMP180;66104;45.456;11.064;2023-02-27T00:38:12;100322.60;;;6.36
68745;BMP180;66104;45.456;11.064;2023-02-27T00:40:49;100325.80;;;6.40
68745;BMP180;66104;45.456;11.064;2023-02-27T00:43:25;100317.40;;;6.40
68745;BMP180;66104;45.456;11.064;2023-02-27T00:46:02;100321.60;;;6.40
68745;BMP180;66104;45.456;11.064;2023-02-27T00:48:38;100319.60;;;6.40
68745;BMP180;66104;45.456;11.064;2023-02-27T00:51:15;100327.20;;;6.40
68745;BMP180;66104;45.456;11.064;2023-02-27T00:53:52;100334.00;;;6.32
68745;BMP180;66104;45.456;11.064;2023-02-27T00:56:28;100332.60;;;6.30
68745;BMP180;66104;45.456;11.064;2023-02-27T00:59:05;100330.80;;;6.38
68745;BMP180;66104;45.456;11.064;2023-02-27T01:01:41;100338.60;;;6.30
68745;BMP180;66104;45.456;11.064;2023-02-27T01:04:18;100333.20;;;6.30
68745;BMP180;66104;45.456;11.064;2023-02-27T01:06:54;100337.60;;;6.30
68745;BMP180;66104;45.456;11.064;2023-02-27T01:09:32;100338.00;;;6.32
68745;BMP180;66104;45.456;11.064;2023-02-27T01:12:08;100340.60;;;6.40
68745;BMP180;66104;45.456;11.064;2023-02-27T01:14:45;100342.80;;;6.40
68745;BMP180;66104;45.456;11.064;2023-02-27T01:17:22;100346.80;;;6.44
68745;BMP180;66104;45.456;11.064;2023-02-27T01:19:58;100351.60;;;6.50
68745;BMP180;66104;45.456;11.064;2023-02-27T01:22:35;100350.60;;;6.50
68745;BMP180;66104;45.456;11.064;2023-02-27T01:25:13;100356.40;;;6.50
68745;BMP180;66104;45.456;11.064;2023-02-27T01:27:49;100353.00;;;6.50
68745;BMP180;66104;45.456;11.064;2023-02-27T01:30:26;100351.80;;;6.50
68745;BMP180;66104;45.456;11.064;2023-02-27T01:33:02;100354.60;;;6.50
68745;BMP180;66104;45.456;11.064;2023-02-27T01:35:39;100355.40;;;6.54
68745;BMP180;66104;45.456;11.064;2023-02-27T01:38:17;100359.80;;;6.60
68745;BMP180;66104;45.456;11.064;2023-02-27T01:40:54;100357.00;;;6.60
68745;BMP180;66104;45.456;11.064;2023-02-27T01:43:30;100352.80;;;6.60
68745;BMP180;66104;45.456;11.064;2023-02-27T01:46:07;100345.80;;;6.66
68745;BMP180;66104;45.456;11.064;2023-02-27T01:48:44;100350.00;;;6.70
68745;BMP180;66104;45.456;11.064;2023-02-27T01:51:23;100349.40;;;6.70
68745;BMP180;66104;45.456;11.064;2023-02-27T01:54:02;100352.60;;;6.70
68745;BMP180;66104;45.456;11.064;2023-02-27T01:56:39;100355.80;;;6.70
68745;BMP180;66104;45.456;11.064;2023-02-27T01:59:19;100356.40;;;6.78
68745;BMP180;66104;45.456;11.064;2023-02-27T02:01:56;100353.00;;;6.80
68745;BMP180;66104;45.456;11.064;2023-02-27T02:04:37;100353.40;;;6.80
68745;BMP180;66104;45.456;11.064;2023-02-27T02:07:16;100351.80;;;6.80
68745;BMP180;66104;45.456;11.064;2023-02-27T02:09:56;100350.80;;;6.80
68745;BMP180;66104;45.456;11.064;2023-02-27T02:12:37;100360.00;;;6.80
68745;BMP180;66104;45.456;11.064;2023-02-27T02:15:16;100354.40;;;6.80
68745;BMP180;66104;45.456;11.064;2023-02-27T02:18:07;100358.00;;;6.90
68745;BMP180;66104;45.456;11.064;2023-02-27T02:24:43;100360.40;;;6.90
68745;BMP180;66104;45.456;11.064;2023-02-27T02:27:46;100356.00;;;6.90
68745;BMP180;66104;45.456;11.064;2023-02-27T02:30:51;100361.20;;;6.90
68745;BMP180;66104;45.456;11.064;2023-02-27T02:34:20;100363.20;;;6.90
68745;BMP180;66104;45.456;11.064;2023-02-27T02:37:41;100361.80;;;6.90
68745;BMP180;66104;45.456;11.064;2023-02-27T02:40:29;100363.60;;;6.90
68745;BMP180;66104;45.456;11.064;2023-02-27T02:43:18;100369.00;;;6.90
68745;BMP180;66104;45.456;11.064;2023-02-27T02:46:05;100376.60;;;6.88
68745;BMP180;66104;45.456;11.064;2023-02-27T02:48:53;100379.80;;;6.80
68745;BMP180;66104;45.456;11.064;2023-02-27T02:51:38;100377.80;;;6.80
68745;BMP180;66104;45.456;11.064;2023-02-27T02:54:24;100384.20;;;6.80
68745;BMP180;66104;45.456;11.064;2023-02-27T02:57:08;100394.00;;;6.80
68745;BMP180;66104;45.456;11.064;2023-02-27T02:59:52;100398.20;;;6.80
68745;BMP180;66104;45.456;11.064;2023-02-27T03:02:35;100398.20;;;6.80
68745;BMP180;66104;45.456;11.064;2023-02-27T03:05:21;100406.60;;;6.80
68745;BMP180;66104;45.456;11.064;2023-02-27T03:08:02;100407.40;;;6.78
68745;BMP180;66104;45.456;11.064;2023-02-27T03:10:47;100407.40;;;6.70
68745;BMP180;66104;45.456;11.064;2023-02-27T03:13:29;100406.00;;;6.70
68745;BMP180;66104;45.456;11.064;2023-02-27T03:16:16;100410.60;;;6.60
68745;BMP180;66104;45.456;11.064;2023-02-27T03:19:01;100409.80;;;6.60
68745;BMP180;66104;45.456;11.064;2023-02-27T03:21:44;100410.80;;;6.60
68745;BMP180;66104;45.456;11.064;2023-02-27T03:24:29;100419.20;;;6.60
68745;BMP180;66104;45.456;11.064;2023-02-27T03:27:09;100421.40;;;6.60
68745;BMP180;66104;45.456;11.064;2023-02-27T03:29:53;100424.00;;;6.60
68745;BMP180;66104;45.456;11.064;2023-02-27T03:32:39;100431.60;;;6.60
68745;BMP180;66104;45.456;11.064;2023-02-27T03:35:20;100433.00;;;6.60
68745;BMP180;66104;45.456;11.064;2023-02-27T03:38:05;100436.00;;;6.56
68745;BMP180;66104;45.456;11.064;2023-02-27T03:40:57;100440.40;;;6.52
68745;BMP180;66104;45.456;11.064;2023-02-27T03:43:55;100441.00;;;6.50
68745;BMP180;66104;45.456;11.064;2023-02-27T03:46:37;100444.00;;;6.50
68745;BMP180;66104;45.456;11.064;2023-02-27T03:49:15;100449.60;;;6.48
68745;BMP180;66104;45.456;11.064;2023-02-27T03:51:51;100449.40;;;6.40
68745;BMP180;66104;45.456;11.064;2023-02-27T03:54:33;100450.20;;;6.40
68745;BMP180;66104;45.456;11.064;2023-02-27T03:57:12;100455.80;;;6.40
68745;BMP180;66104;45.456;11.064;2023-02-27T03:59:49;100459.60;;;6.36
68745;BMP180;66104;45.456;11.064;2023-02-27T04:02:27;100458.80;;;6.38
68745;BMP180;66104;45.456;11.064;2023-02-27T04:05:03;100460.80;;;6.40
68745;BMP180;66104;45.456;11.064;2023-02-27T04:08:14;100462.00;;;6.40
68745;BMP180;66104;45.456;11.064;2023-02-27T04:14:37;100466.00;;;6.40
68745;BMP180;66104;45.456;11.064;2023-02-27T04:17:29;100468.00;;;6.42
68745;BMP180;66104;45.456;11.064;2023-02-27T04:20:40;100467.40;;;6.40
68745;BMP180;66104;45.456;11.064;2023-02-27T04:23:27;100468.80;;;6.40
68745;BMP180;66104;45.456;11.064;2023-02-27T04:26:22;100468.00;;;6.40
68745;BMP180;66104;45.456;11.064;2023-02-27T04:29:07;100475.40;;;6.40
68745;BMP180;66104;45.456;11.064;2023-02-27T04:31:55;100470.80;;;6.40
68745;BMP180;66104;45.456;11.064;2023-02-27T04:34:37;100475.00;;;6.40
68745;BMP180;66104;45.456;11.064;2023-02-27T04:37:25;100484.40;;;6.40
68745;BMP180;66104;45.456;11.064;2023-02-27T04:40:08;100482.00;;;6.36
68745;BMP180;66104;45.456;11.064;2023-02-27T04:42:51;100489.20;;;6.38
68745;BMP180;66104;45.456;11.064;2023-02-27T04:45:32;100495.40;;;6.32
68745;BMP180;66104;45.456;11.064;2023-02-27T04:48:19;100497.20;;;6.30
68745;BMP180;66104;45.456;11.064;2023-02-27T04:51:04;100496.40;;;6.30
68745;BMP180;66104;45.456;11.064;2023-02-27T04:53:49;100496.00;;;6.30
68745;BMP180;66104;45.456;11.064;2023-02-27T04:56:29;100496.20;;;6.30
68745;BMP180;66104;45.456;11.064;2023-02-27T04:59:12;100493.40;;;6.30
68745;BMP180;66104;45.456;11.064;2023-02-27T05:01:56;100490.80;;;6.30
68745;BMP180;66104;45.456;11.064;2023-02-27T05:04:39;100492.20;;;6.32
68745;BMP180;66104;45.456;11.064;2023-02-27T05:07:24;100487.00;;;6.36
68745;BMP180;66104;45.456;11.064;2023-02-27T05:10:05;100494.40;;;6.40
68745;BMP180;66104;45.456;11.064;2023-02-27T05:12:49;100490.40;;;6.40
68745;BMP180;66104;45.456;11.064;2023-02-27T05:15:34;100484.40;;;6.40
68745;BMP180;66104;45.456;11.064;2023-02-27T05:18:13;100487.80;;;6.40
68745;BMP180;66104;45.456;11.064;2023-02-27T05:21:04;100481.40;;;6.40
68745;BMP180;66104;45.456;11.064;2023-02-27T05:23:52;100483.80;;;6.40
68745;BMP180;66104;45.456;11.064;2023-02-27T05:26:49;100488.80;;;6.40
68745;BMP180;66104;45.456;11.064;2023-02-27T05:29:37;100484.60;;;6.40
68745;BMP180;66104;45.456;11.064;2023-02-27T05:35:22;100485.00;;;6.40
68745;BMP180;66104;45.456;11.064;2023-02-27T05:38:12;100489.20;;;6.40
68745;BMP180;66104;45.456;11.064;2023-02-27T05:40:55;100484.60;;;6.40
68745;BMP180;66104;45.456;11.064;2023-02-27T05:43:37;100497.60;;;6.40
68745;BMP180;66104;45.456;11.064;2023-02-27T05:46:19;100495.60;;;6.46
68745;BMP180;66104;45.456;11.064;2023-02-27T05:49:00;100492.60;;;6.50
68745;BMP180;66104;45.456;11.064;2023-02-27T05:51:41;100494.80;;;6.50
68745;BMP180;66104;45.456;11.064;2023-02-27T05:54:28;100508.80;;;6.50
68745;BMP180;66104;45.456;11.064;2023-02-27T05:57:14;100499.80;;;6.50
68745;BMP180;66104;45.456;11.064;2023-02-27T05:59:59;100503.20;;;6.52
68745;BMP180;66104;45.456;11.064;2023-02-27T06:02:44;100507.20;;;6.60
68745;BMP180;66104;45.456;11.064;2023-02-27T06:05:23;100505.20;;;6.60
68745;BMP180;66104;45.456;11.064;2023-02-27T06:08:02;100511.00;;;6.60
68745;BMP180;66104;45.456;11.064;2023-02-27T06:10:40;100516.00;;;6.60
68745;BMP180;66104;45.456;11.064;2023-02-27T06:13:17;100522.40;;;6.60
68745;BMP180;66104;45.456;11.064;2023-02-27T06:15:53;100524.60;;;6.60
68745;BMP180;66104;45.456;11.064;2023-02-27T06:18:31;100534.20;;;6.60
68745;BMP180;66104;45.456;11.064;2023-02-27T06:21:12;100535.60;;;6.60
68745;BMP180;66104;45.456;11.064;2023-02-27T06:23:50;100543.00;;;6.60
68745;BMP180;66104;45.456;11.064;2023-02-27T06:26:27;100551.80;;;6.60
68745;BMP180;66104;45.456;11.064;2023-02-27T06:29:04;100542.80;;;6.60
68745;BMP180;66104;45.456;11.064;2023-02-27T06:31:41;100553.20;;;6.62
68745;BMP180;66104;45.456;11.064;2023-02-27T06:34:17;100555.20;;;6.60
68745;BMP180;66104;45.456;11.064;2023-02-27T06:36:53;100555.80;;;6.60
68745;BMP180;66104;45.456;11.064;2023-02-27T06:39:30;100549.00;;;6.62
68745;BMP180;66104;45.456;11.064;2023-02-27T06:42:07;100555.80;;;6.60
68745;BMP180;66104;45.456;11.064;2023-02-27T06:44:45;100565.60;;;6.60
68745;BMP180;66104;45.456;11.064;2023-02-27T06:47:22;100565.20;;;6.60
68745;BMP180;66104;45.456;11.064;2023-02-27T06:49:59;100570.20;;;6.70
68745;BMP180;66104;45.456;11.064;2023-02-27T06:52:36;100575.00;;;6.70
68745;BMP180;66104;45.456;11.064;2023-02-27T06:55:16;100576.20;;;6.70
68745;BMP180;66104;45.456;11.064;2023-02-27T06:57:55;100578.40;;;6.70
68745;BMP180;66104;45.456;11.064;2023-02-27T07:00:31;100590.80;;;6.70
68745;BMP180;66104;45.456;11.064;2023-02-27T07:03:08;100597.60;;;6.70
68745;BMP180;66104;45.456;11.064;2023-02-27T07:05:43;100598.80;;;6.70
68745;BMP180;66104;45.456;11.064;2023-02-27T07:08:20;100604.00;;;6.70
68745;BMP180;66104;45.456;11.064;2023-02-27T07:10:58;100612.00;;;6.70
68745;BMP180;66104;45.456;11.064;2023-02-27T07:13:35;100610.60;;;6.62
68745;BMP180;66104;45.456;11.064;2023-02-27T07:16:13;100605.20;;;6.60
68745;BMP180;66104;45.456;11.064;2023-02-27T07:18:51;100618.80;;;6.60
68745;BMP180;66104;45.456;11.064;2023-02-27T07:21:28;100624.80;;;6.60
68745;BMP180;66104;45.456;11.064;2023-02-27T07:24:06;100629.60;;;6.60
68745;BMP180;66104;45.456;11.064;2023-02-27T07:26:44;100632.00;;;6.60
68745;BMP180;66104;45.456;11.064;2023-02-27T07:29:22;100634.60;;;6.54
68745;BMP180;66104;45.456;11.064;2023-02-27T07:31:59;100641.80;;;6.50
68745;BMP180;66104;45.456;11.064;2023-02-27T07:34:36;100644.60;;;6.50
68745;BMP180;66104;45.456;11.064;2023-02-27T07:37:13;100647.80;;;6.50
68745;BMP180;66104;45.456;11.064;2023-02-27T07:39:49;100654.80;;;6.50
68745;BMP180;66104;45.456;11.064;2023-02-27T07:42:26;100665.80;;;6.48
68745;BMP180;66104;45.456;11.064;2023-02-27T07:45:04;100665.80;;;6.40
68745;BMP180;66104;45.456;11.064;2023-02-27T07:47:41;100671.00;;;6.40
68745;BMP180;66104;45.456;11.064;2023-02-27T07:50:17;100676.60;;;6.48
68745;BMP180;66104;45.456;11.064;2023-02-27T07:52:55;100680.20;;;6.50
68745;BMP180;66104;45.456;11.064;2023-02-27T07:55:32;100680.40;;;6.50
68745;BMP180;66104;45.456;11.064;2023-02-27T07:58:10;100690.20;;;6.50
68745;BMP180;66104;45.456;11.064;2023-02-27T08:00:47;100687.20;;;6.50
68745;BMP180;66104;45.456;11.064;2023-02-27T08:03:24;100697.20;;;6.50
68745;BMP180;66104;45.456;11.064;2023-02-27T08:06:00;100702.40;;;6.50
68745;BMP180;66104;45.456;11.064;2023-02-27T08:08:37;100700.80;;;6.50
68745;BMP180;66104;45.456;11.064;2023-02-27T08:11:14;100704.40;;;6.50
68745;BMP180;66104;45.456;11.064;2023-02-27T08:13:52;100698.40;;;6.50
68745;BMP180;66104;45.456;11.064;2023-02-27T08:16:34;100706.20;;;6.58
68745;BMP180;66104;45.456;11.064;2023-02-27T08:19:13;100702.00;;;6.60
68745;BMP180;66104;45.456;11.064;2023-02-27T08:21:49;100699.20;;;6.62
68745;BMP180;66104;45.456;11.064;2023-02-27T08:24:28;100700.80;;;6.70
68745;BMP180;66104;45.456;11.064;2023-02-27T08:27:04;100700.00;;;6.70
68745;BMP180;66104;45.456;11.064;2023-02-27T08:29:41;100701.00;;;6.70
68745;BMP180;66104;45.456;11.064;2023-02-27T08:32:18;100703.60;;;6.70
68745;BMP180;66104;45.456;11.064;2023-02-27T08:34:54;100711.20;;;6.78
68745;BMP180;66104;45.456;11.064;2023-02-27T08:37:31;100708.80;;;6.80
68745;BMP180;66104;45.456;11.064;2023-02-27T08:40:14;100707.60;;;6.80
68745;BMP180;66104;45.456;11.064;2023-02-27T08:42:52;100706.80;;;6.80
68745;BMP180;66104;45.456;11.064;2023-02-27T08:45:28;100703.20;;;6.80
68745;BMP180;66104;45.456;11.064;2023-02-27T08:48:06;100705.20;;;6.88
68745;BMP180;66104;45.456;11.064;2023-02-27T08:50:43;100707.80;;;6.90
68745;BMP180;66104;45.456;11.064;2023-02-27T08:53:19;100708.40;;;6.90
68745;BMP180;66104;45.456;11.064;2023-02-27T08:55:55;100708.20;;;7.00
68745;BMP180;66104;45.456;11.064;2023-02-27T08:58:32;100702.80;;;7.00
68745;BMP180;66104;45.456;11.064;2023-02-27T09:01:10;100704.00;;;6.98
68745;BMP180;66104;45.456;11.064;2023-02-27T09:03:46;100705.20;;;7.00
68745;BMP180;66104;45.456;11.064;2023-02-27T09:06:22;100707.00;;;7.00
68745;BMP180;66104;45.456;11.064;2023-02-27T09:08:59;100708.80;;;7.08
68745;BMP180;66104;45.456;11.064;2023-02-27T09:11:36;100713.80;;;7.10
68745;BMP180;66104;45.456;11.064;2023-02-27T09:14:12;100713.80;;;7.20
68745;BMP180;66104;45.456;11.064;2023-02-27T09:16:49;100714.20;;;7.20
68745;BMP180;66104;45.456;11.064;2023-02-27T09:19:26;100711.80;;;7.30
68745;BMP180;66104;45.456;11.064;2023-02-27T09:22:03;100710.80;;;7.30
68745;BMP180;66104;45.456;11.064;2023-02-27T09:24:40;100715.20;;;7.40
68745;BMP180;66104;45.456;11.064;2023-02-27T09:27:17;100715.60;;;7.40
68745;BMP180;66104;45.456;11.064;2023-02-27T09:29:54;100719.60;;;7.48
68745;BMP180;66104;45.456;11.064;2023-02-27T09:32:32;100717.40;;;7.50
68745;BMP180;66104;45.456;11.064;2023-02-27T09:35:11;100718.20;;;7.50
68745;BMP180;66104;45.456;11.064;2023-02-27T09:37:49;100717.80;;;7.60
68745;BMP180;66104;45.456;11.064;2023-02-27T09:40:28;100720.60;;;7.70
68745;BMP180;66104;45.456;11.064;2023-02-27T09:43:13;100720.60;;;7.74
68745;BMP180;66104;45.456;11.064;2023-02-27T09:45:56;100725.20;;;7.82
68745;BMP180;66104;45.456;11.064;2023-02-27T09:48:38;100723.60;;;7.90
68745;BMP180;66104;45.456;11.064;2023-02-27T09:51:20;100727.60;;;7.90
68745;BMP180;66104;45.456;11.064;2023-02-27T09:54:01;100728.00;;;7.90
68745;BMP180;66104;45.456;11.064;2023-02-27T09:56:49;100734.60;;;8.00
68745;BMP180;66104;45.456;11.064;2023-02-27T09:59:38;100733.00;;;8.10
68745;BMP180;66104;45.456;11.064;2023-02-27T10:02:41;100744.20;;;8.10
68745;BMP180;66104;45.456;11.064;2023-02-27T10:05:33;100747.00;;;8.10
68745;BMP180;66104;45.456;11.064;2023-02-27T10:08:20;100749.40;;;8.10
68745;BMP180;66104;45.456;11.064;2023-02-27T10:11:05;100744.00;;;8.12
68745;BMP180;66104;45.456;11.064;2023-02-27T10:13:58;100751.40;;;8.18
68745;BMP180;66104;45.456;11.064;2023-02-27T10:16:37;100744.60;;;8.20
68745;BMP180;66104;45.456;11.064;2023-02-27T10:19:25;100748.40;;;8.30
68745;BMP180;66104;45.456;11.064;2023-02-27T10:22:07;100745.40;;;8.30
68745;BMP180;66104;45.456;11.064;2023-02-27T10:24:52;100739.60;;;8.50
68745;BMP180;66104;45.456;11.064;2023-02-27T10:27:31;100744.20;;;8.60
68745;BMP180;66104;45.456;11.064;2023-02-27T10:30:25;100744.00;;;8.70
68745;BMP180;66104;45.456;11.064;2023-02-27T10:33:17;100736.20;;;8.80
68745;BMP180;66104;45.456;11.064;2023-02-27T10:35:59;100740.00;;;8.80
68745;BMP180;66104;45.456;11.064;2023-02-27T10:38:40;100738.60;;;8.88
68745;BMP180;66104;45.456;11.064;2023-02-27T10:41:19;100733.20;;;8.90
68745;BMP180;66104;45.456;11.064;2023-02-27T10:44:03;100735.20;;;9.00
68745;BMP180;66104;45.456;11.064;2023-02-27T10:46:41;100743.80;;;8.90
68745;BMP180;66104;45.456;11.064;2023-02-27T10:49:21;100739.00;;;8.90
68745;BMP180;66104;45.456;11.064;2023-02-27T10:52:13;100742.80;;;8.90
68745;BMP180;66104;45.456;11.064;2023-02-27T10:54:49;100741.60;;;8.90
68745;BMP180;66104;45.456;11.064;2023-02-27T10:57:39;100742.00;;;9.00
68745;BMP180;66104;45.456;11.064;2023-02-27T11:00:33;100753.40;;;9.00
68745;BMP180;66104;45.456;11.064;2023-02-27T11:03:24;100751.00;;;9.00
68745;BMP180;66104;45.456;11.064;2023-02-27T11:06:08;100740.80;;;9.00
68745;BMP180;66104;45.456;11.064;2023-02-27T11:08:45;100735.40;;;8.92
68745;BMP180;66104;45.456;11.064;2023-02-27T11:11:41;100738.80;;;9.00
68745;BMP180;66104;45.456;11.064;2023-02-27T11:14:29;100740.80;;;9.10
68745;BMP180;66104;45.456;11.064;2023-02-27T11:17:09;100729.00;;;9.10
68745;BMP180;66104;45.456;11.064;2023-02-27T11:19:57;100720.80;;;9.10
68745;BMP180;66104;45.456;11.064;2023-02-27T11:22:34;100720.80;;;9.10
68745;BMP180;66104;45.456;11.064;2023-02-27T11:25:26;100722.80;;;9.08
68745;BMP180;66104;45.456;11.064;2023-02-27T11:28:21;100722.00;;;9.10
68745;BMP180;66104;45.456;11.064;2023-02-27T11:31:06;100716.00;;;9.10
68745;BMP180;66104;45.456;11.064;2023-02-27T11:33:56;100712.20;;;9.10
68745;BMP180;66104;45.456;11.064;2023-02-27T11:36:45;100709.40;;;9.10
68745;BMP180;66104;45.456;11.064;2023-02-27T11:39:32;100712.00;;;9.00
68745;BMP180;66104;45.456;11.064;2023-02-27T11:42:29;100709.20;;;9.00
68745;BMP180;66104;45.456;11.064;2023-02-27T11:48:38;100699.80;;;8.90
68745;BMP180;66104;45.456;11.064;2023-02-27T11:51:47;100699.40;;;9.00
68745;BMP180;66104;45.456;11.064;2023-02-27T11:54:38;100698.00;;;9.06
68745;BMP180;66104;45.456;11.064;2023-02-27T11:57:27;100700.00;;;9.10
68745;BMP180;66104;45.456;11.064;2023-02-27T12:00:19;100698.00;;;9.20
68745;BMP180;66104;45.456;11.064;2023-02-27T12:03:08;100702.80;;;9.30
68745;BMP180;66104;45.456;11.064;2023-02-27T12:05:53;100701.60;;;9.40
68745;BMP180;66104;45.456;11.064;2023-02-27T12:08:38;100706.60;;;9.40
68745;BMP180;66104;45.456;11.064;2023-02-27T12:11:23;100704.40;;;9.36
68745;BMP180;66104;45.456;11.064;2023-02-27T12:14:08;100704.40;;;9.30
68745;BMP180;66104;45.456;11.064;2023-02-27T12:16:52;100698.60;;;9.30
68745;BMP180;66104;45.456;11.064;2023-02-27T12:19:37;100689.20;;;9.30
68745;BMP180;66104;45.456;11.064;2023-02-27T12:22:23;100701.60;;;9.30
68745;BMP180;66104;45.456;11.064;2023-02-27T12:25:09;100695.80;;;9.30
68745;BMP180;66104;45.456;11.064;2023-02-27T12:27:54;100696.80;;;9.40
68745;BMP180;66104;45.456;11.064;2023-02-27T12:30:40;100695.60;;;9.40
68745;BMP180;66104;45.456;11.064;2023-02-27T12:33:32;100693.60;;;9.40
68745;BMP180;66104;45.456;11.064;2023-02-27T12:36:16;100700.00;;;9.50
68745;BMP180;66104;45.456;11.064;2023-02-27T12:38:54;100693.00;;;9.50
68745;BMP180;66104;45.456;11.064;2023-02-27T12:41:47;100694.00;;;9.54
68745;BMP180;66104;45.456;11.064;2023-02-27T12:44:54;100687.40;;;9.70
68745;BMP180;66104;45.456;11.064;2023-02-27T12:47:44;100695.00;;;9.70
68745;BMP180;66104;45.456;11.064;2023-02-27T12:50:26;100691.00;;;9.78
68745;BMP180;66104;45.456;11.064;2023-02-27T12:53:28;100690.00;;;9.80
68745;BMP180;66104;45.456;11.064;2023-02-27T12:56:15;100687.80;;;9.80
68745;BMP180;66104;45.456;11.064;2023-02-27T12:59:04;100692.00;;;9.80
68745;BMP180;66104;45.456;11.064;2023-02-27T13:01:50;100686.00;;;9.88
68745;BMP180;66104;45.456;11.064;2023-02-27T13:04:39;100680.40;;;9.90
68745;BMP180;66104;45.456;11.064;2023-02-27T13:07:29;100683.80;;;9.90
68745;BMP180;66104;45.456;11.064;2023-02-27T13:10:21;100689.20;;;9.90
68745;BMP180;66104;45.456;11.064;2023-02-27T13:13:04;100691.40;;;9.90
68745;BMP180;66104;45.456;11.064;2023-02-27T13:15:50;100688.60;;;9.90
68745;BMP180;66104;45.456;11.064;2023-02-27T13:18:45;100692.00;;;9.90
68745;BMP180;66104;45.456;11.064;2023-02-27T13:21:30;100694.40;;;9.90
68745;BMP180;66104;45.456;11.064;2023-02-27T13:24:23;100690.00;;;9.84
68745;BMP180;66104;45.456;11.064;2023-02-27T13:27:06;100695.20;;;9.80
68745;BMP180;66104;45.456;11.064;2023-02-27T13:29:52;100683.40;;;9.80
68745;BMP180;66104;45.456;11.064;2023-02-27T13:32:38;100688.60;;;9.84
68745;BMP180;66104;45.456;11.064;2023-02-27T13:35:37;100693.80;;;9.80
68745;BMP180;66104;45.456;11.064;2023-02-27T13:38:39;100689.80;;;9.72
68745;BMP180;66104;45.456;11.064;2023-02-27T13:41:40;100694.40;;;9.70
68745;BMP180;66104;45.456;11.064;2023-02-27T13:44:41;100696.00;;;9.70
68745;BMP180;66104;45.456;11.064;2023-02-27T13:47:48;100703.20;;;9.70
68745;BMP180;66104;45.456;11.064;2023-02-27T13:50:51;100708.80;;;9.78
68745;BMP180;66104;45.456;11.064;2023-02-27T13:53:29;100707.00;;;9.80
68745;BMP180;66104;45.456;11.064;2023-02-27T13:56:31;100713.40;;;9.80
68745;BMP180;66104;45.456;11.064;2023-02-27T13:59:21;100711.80;;;9.70
68745;BMP180;66104;45.456;11.064;2023-02-27T14:02:02;100721.00;;;9.70
68745;BMP180;66104;45.456;11.064;2023-02-27T14:04:46;100725.80;;;9.60
68745;BMP180;66104;45.456;11.064;2023-02-27T14:07:28;100722.60;;;9.60
68745;BMP180;66104;45.456;11.064;2023-02-27T14:10:09;100726.40;;;9.60
68745;BMP180;66104;45.456;11.064;2023-02-27T14:12:47;100733.80;;;9.50
68745;BMP180;66104;45.456;11.064;2023-02-27T14:16:04;100730.80;;;9.40
68745;BMP180;66104;45.456;11.064;2023-02-27T14:18:56;100736.40;;;9.40
68745;BMP180;66104;45.456;11.064;2023-02-27T14:21:58;100735.40;;;9.40
68745;BMP180;66104;45.456;11.064;2023-02-27T14:24:39;100750.00;;;9.40
68745;BMP180;66104;45.456;11.064;2023-02-27T14:27:45;100745.80;;;9.40
68745;BMP180;66104;45.456;11.064;2023-02-27T14:30:49;100756.60;;;9.40
68745;BMP180;66104;45.456;11.064;2023-02-27T14:33:35;100760.40;;;9.30
68745;BMP180;66104;45.456;11.064;2023-02-27T14:36:22;100765.00;;;9.30
68745;BMP180;66104;45.456;11.064;2023-02-27T14:39:02;100762.20;;;9.30
68745;BMP180;66104;45.456;11.064;2023-02-27T14:41:46;100766.20;;;9.30
68745;BMP180;66104;45.456;11.064;2023-02-27T14:44:35;100768.60;;;9.30
68745;BMP180;66104;45.456;11.064;2023-02-27T14:47:22;100767.80;;;9.30
68745;BMP180;66104;45.456;11.064;2023-02-27T14:49:59;100771.00;;;9.30
68745;BMP180;66104;45.456;11.064;2023-02-27T14:52:42;100771.80;;;9.30
68745;BMP180;66104;45.456;11.064;2023-02-27T14:55:24;100767.40;;;9.30
68745;BMP180;66104;45.456;11.064;2023-02-27T14:58:14;100772.00;;;9.26
68745;BMP180;66104;45.456;11.064;2023-02-27T15:01:04;100773.60;;;9.20
68745;BMP180;66104;45.456;11.064;2023-02-27T15:03:46;100775.60;;;9.20
68745;BMP180;66104;45.456;11.064;2023-02-27T15:06:32;100778.20;;;9.20
68745;BMP180;66104;45.456;11.064;2023-02-27T15:09:21;100781.00;;;9.20
68745;BMP180;66104;45.456;11.064;2023-02-27T15:12:00;100783.00;;;9.20
68745;BMP180;66104;45.456;11.064;2023-02-27T15:14:39;100786.80;;;9.20
68745;BMP180;66104;45.456;11.064;2023-02-27T15:17:22;100785.60;;;9.20
68745;BMP180;66104;45.456;11.064;2023-02-27T15:20:00;100782.80;;;9.20
68745;BMP180;66104;45.456;11.064;2023-02-27T15:22:42;100787.80;;;9.20
68745;BMP180;66104;45.456;11.064;2023-02-27T15:25:33;100789.40;;;9.20
68745;BMP180;66104;45.456;11.064;2023-02-27T15:28:23;100792.20;;;9.20
68745;BMP180;66104;45.456;11.064;2023-02-27T15:31:02;100802.80;;;9.20
68745;BMP180;66104;45.456;11.064;2023-02-27T15:33:39;100795.20;;;9.20
68745;BMP180;66104;45.456;11.064;2023-02-27T15:36:23;100796.20;;;9.20
68745;BMP180;66104;45.456;11.064;2023-02-27T15:39:19;100799.60;;;9.20
68745;BMP180;66104;45.456;11.064;2023-02-27T15:41:58;100793.40;;;9.20